Time;durP1;ratioP1;P1;durP2;ratioP2;P2;SDS_P1;SDS_P2;PMS_P1;PMS_P2;Temp;Humidity;BMP_temperature;BMP_pressure;BME280_temperature;BME280_humidity;BME280_pressure;Samples;Min_cycle;Max_cycle;Signal;HPM_P1;HPM_P2
2023/06/12 00:03:05;;;;;;;5.80;4.78;;;;;;;23.90;38.39;100025.22;10306667;28;20057;-55
2023/06/12 00:08:08;;;;;;;5.25;4.55;;;;;;;23.82;38.47;100011.84;10301751;28;20677;-56
2023/06/12 00:13:11;;;;;;;5.80;4.82;;;;;;;23.81;38.13;100024.59;10302390;28;20546;-56
2023/06/12 00:18:15;;;;;;;4.95;4.45;;;;;;;23.79;38.62;100018.53;10311823;28;20046;-56
2023/06/12 00:23:17;;;;;;;5.35;4.78;;;;;;;23.70;38.72;100024.44;10317366;28;20186;-55
2023/06/12 00:28:19;;;;;;;5.40;4.35;;;;;;;23.64;39.49;100026.97;10304366;28;20058;-56
2023/06/12 00:33:20;;;;;;;5.40;4.43;;;;;;;23.57;39.36;100020.75;10312308;28;20616;-56
2023/06/12 00:38:22;;;;;;;5.15;4.75;;;;;;;23.52;39.69;100025.13;10304656;28;20054;-56
2023/06/12 00:43:24;;;;;;;5.80;5.00;;;;;;;23.48;39.62;100013.88;10316050;28;20722;-55
2023/06/12 00:48:25;;;;;;;5.57;4.93;;;;;;;23.46;39.73;100018.66;10299696;28;20080;-56
2023/06/12 00:53:27;;;;;;;4.95;4.55;;;;;;;23.40;39.87;100025.78;10313844;28;20585;-56
2023/06/12 00:58:28;;;;;;;5.43;4.55;;;;;;;23.36;39.68;100018.28;10314626;28;20080;-56
2023/06/12 01:03:32;;;;;;;4.93;4.43;;;;;;;23.35;39.79;100017.47;10311149;28;20062;-56
2023/06/12 01:08:44;;;;;;;7.50;5.10;;;;;;;23.32;40.19;100017.06;10304432;28;20103;-58
2023/06/12 01:13:46;;;;;;;5.00;4.53;;;;;;;23.29;40.00;100024.56;10306053;28;20704;-56
2023/06/12 01:18:49;;;;;;;5.15;4.63;;;;;;;23.26;40.07;100016.84;10283802;28;20050;-56
2023/06/12 01:23:58;;;;;;;4.63;4.28;;;;;;;23.24;40.19;100016.25;10291681;28;20520;-56
2023/06/12 01:29:15;;;;;;;5.78;3.95;;;;;;;23.24;39.66;100020.81;10305285;28;20730;-56
2023/06/12 01:34:26;;;;;;;4.78;4.20;;;;;;;23.17;39.64;100017.31;10305216;28;20072;-58
2023/06/12 01:39:30;;;;;;;4.30;3.90;;;;;;;23.13;39.35;100014.16;10309846;28;21152;-56
2023/06/12 01:44:35;;;;;;;5.15;4.45;;;;;;;23.09;39.08;100011.03;10293426;28;21208;-56
2023/06/12 01:49:37;;;;;;;4.55;4.15;;;;;;;23.10;38.50;100020.00;10307384;28;20093;-57
2023/06/12 01:54:38;;;;;;;5.20;4.70;;;;;;;23.10;38.85;100014.59;10290701;28;20080;-56
2023/06/12 01:59:40;;;;;;;4.97;4.50;;;;;;;23.04;38.94;100021.66;10306196;28;20457;-55
2023/06/12 02:04:42;;;;;;;4.65;4.25;;;;;;;23.04;38.86;100020.84;10309840;28;20050;-56
2023/06/12 02:09:43;;;;;;;4.78;4.28;;;;;;;22.95;39.03;100023.78;10298126;28;20486;-62
2023/06/12 02:14:47;;;;;;;4.95;4.55;;;;;;;22.91;39.46;100022.53;10304137;28;21124;-56
2023/06/12 02:19:49;;;;;;;4.88;4.38;;;;;;;22.69;39.50;100000.19;10308977;28;20057;-56
2023/06/12 02:24:50;;;;;;;5.68;4.78;;;;;;;22.83;39.89;100030.88;10308223;28;20140;-56
2023/06/12 02:29:52;;;;;;;6.25;4.25;;;;;;;22.78;39.65;100030.66;10290955;28;20699;-55
2023/06/12 02:34:54;;;;;;;5.22;4.72;;;;;;;22.69;40.07;100040.88;10308254;28;20375;-55
2023/06/12 02:39:56;;;;;;;5.45;4.80;;;;;;;22.68;39.94;100041.09;10310636;28;20632;-55
2023/06/12 02:44:57;;;;;;;5.20;4.70;;;;;;;22.48;40.27;100039.22;10296541;28;20073;-56
2023/06/12 02:49:59;;;;;;;4.82;4.43;;;;;;;22.41;40.89;100039.22;10298224;28;20054;-55
2023/06/12 02:55:00;;;;;;;5.05;4.63;;;;;;;22.48;40.67;100049.22;10304321;28;20125;-56
2023/06/12 03:00:02;;;;;;;8.25;5.05;;;;;;;22.39;40.63;100051.31;10302674;28;20711;-56
2023/06/12 03:05:05;;;;;;;5.22;4.82;;;;;;;22.42;40.24;100045.47;10302277;28;20131;-56
2023/06/12 03:10:08;;;;;;;5.55;5.07;;;;;;;22.40;40.11;100042.97;10307180;28;20872;-56
2023/06/12 03:15:10;;;;;;;5.20;4.70;;;;;;;22.38;40.08;100045.06;10308136;28;20053;-56
2023/06/12 03:20:14;;;;;;;5.47;4.47;;;;;;;22.34;40.19;100048.34;10289422;28;20068;-56
2023/06/12 03:25:18;;;;;;;4.45;4.10;;;;;;;22.32;39.85;100056.69;10313237;28;20159;-56
2023/06/12 03:30:25;;;;;;;5.22;4.72;;;;;;;22.23;40.21;100052.47;10305203;28;20079;-56
2023/06/12 03:35:26;;;;;;;5.68;4.95;;;;;;;22.25;40.13;100070.22;10294263;28;20057;-56
2023/06/12 03:40:28;;;;;;;4.55;4.15;;;;;;;22.23;40.20;100069.59;10305257;28;20057;-56
2023/06/12 03:45:29;;;;;;;5.55;4.60;;;;;;;22.21;39.96;100065.41;10309341;28;20054;-56
2023/06/12 03:50:31;;;;;;;4.90;4.50;;;;;;;22.12;40.43;100072.88;10309028;28;20050;-56
2023/06/12 03:55:34;;;;;;;5.65;4.68;;;;;;;22.10;40.41;100082.25;10302046;28;20161;-56
2023/06/12 04:00:36;;;;;;;4.72;4.32;;;;;;;22.11;40.32;100082.06;10309188;28;20050;-56
2023/06/12 04:05:37;;;;;;;4.70;4.30;;;;;;;22.11;40.63;100082.06;10315287;28;20042;-57
2023/06/12 04:10:40;;;;;;;5.05;4.55;;;;;;;22.15;40.93;100085.22;10312919;28;20177;-56
2023/06/12 04:15:41;;;;;;;6.73;4.90;;;;;;;22.19;40.87;100095.44;10312842;28;20053;-56
2023/06/12 04:20:43;;;;;;;6.35;4.72;;;;;;;22.19;40.78;100105.44;10312282;28;20136;-55
2023/06/12 04:25:45;;;;;;;5.18;4.78;;;;;;;22.17;40.96;100108.38;10314646;28;20122;-56
2023/06/12 04:30:46;;;;;;;6.50;4.50;;;;;;;22.18;41.03;100109.19;10314152;28;20049;-56
2023/06/12 04:35:49;;;;;;;5.47;4.60;;;;;;;22.16;40.85;100116.66;10310873;28;20506;-57
2023/06/12 04:40:52;;;;;;;5.22;4.72;;;;;;;22.19;40.96;100109.00;10317353;28;20054;-59
2023/06/12 04:45:55;;;;;;;5.28;4.82;;;;;;;22.21;41.49;100108.78;10296101;28;20809;-57
2023/06/12 04:50:58;;;;;;;5.22;4.72;;;;;;;22.24;41.50;100102.94;10284210;28;20046;-56
2023/06/12 04:56:04;;;;;;;5.40;4.57;;;;;;;22.23;41.48;100107.56;10312102;28;20058;-57
2023/06/12 05:01:06;;;;;;;5.10;4.63;;;;;;;22.27;41.70;100112.56;10319546;28;20065;-56
2023/06/12 05:06:08;;;;;;;5.32;4.90;;;;;;;22.31;41.89;100117.41;10292035;28;20251;-57
2023/06/12 05:11:10;;;;;;;5.13;4.68;;;;;;;22.24;42.11;100098.34;10265194;28;20061;-58
2023/06/12 05:16:11;;;;;;;8.95;4.57;;;;;;;22.33;42.56;100117.19;10298579;28;20049;-59
2023/06/12 05:21:14;;;;;;;6.28;5.70;;;;;;;22.35;42.06;100120.53;10295549;28;20922;-58
2023/06/12 05:26:16;;;;;;;5.85;5.35;;;;;;;22.20;42.40;100123.38;10299341;28;20096;-56
2023/06/12 05:31:17;;;;;;;4.80;4.40;;;;;;;22.31;42.19;100121.94;10296166;28;20050;-58
2023/06/12 05:36:19;;;;;;;4.88;4.47;;;;;;;22.42;42.13;100124.09;10306375;28;20868;-56
2023/06/12 05:41:21;;;;;;;5.05;4.28;;;;;;;22.48;41.87;100119.75;10304476;28;20401;-58
2023/06/12 05:46:23;;;;;;;4.95;4.55;;;;;;;22.58;41.81;100126.44;10303869;28;20054;-58
2023/06/12 05:51:25;;;;;;;5.65;5.07;;;;;;;22.67;42.17;100123.50;10289209;28;20057;-56
2023/06/12 05:56:26;;;;;;;6.15;4.97;;;;;;;22.70;41.86;100128.53;10300820;28;20057;-56
2023/06/12 06:01:31;;;;;;;5.13;4.72;;;;;;;22.83;42.17;100131.25;10306923;28;20144;-57
2023/06/12 06:06:33;;;;;;;6.43;5.40;;;;;;;22.92;41.97;100121.91;10301598;28;20435;-57
2023/06/12 06:11:35;;;;;;;6.05;5.45;;;;;;;22.91;42.17;100141.94;10277106;28;20097;-57
2023/06/12 06:16:36;;;;;;;6.25;4.38;;;;;;;22.86;42.09;100133.56;10297303;28;20126;-56
2023/06/12 06:21:54;;;;;;;5.22;4.75;;;;;;;22.93;42.01;100137.13;10289470;28;20167;-57
2023/06/12 06:26:57;;;;;;;6.28;5.00;;;;;;;23.09;42.13;100140.50;10289609;28;20050;-57
2023/06/12 06:32:00;;;;;;;5.07;4.50;;;;;;;23.12;42.00;100143.66;10290988;28;20123;-57
2023/06/12 06:37:01;;;;;;;4.97;4.53;;;;;;;23.30;42.00;100143.00;10291084;28;20296;-57
2023/06/12 06:42:03;;;;;;;5.13;4.63;;;;;;;23.54;41.54;100145.28;10293411;28;20050;-58
2023/06/12 06:47:09;;;;;;;4.80;4.40;;;;;;;23.72;41.38;100152.75;10279200;28;20514;-57
2023/06/12 06:52:11;;;;;;;7.97;4.55;;;;;;;23.86;40.66;100149.00;10292154;28;20533;-57
2023/06/12 06:57:14;;;;;;;6.37;4.73;;;;;;;23.93;40.32;100154.41;10301870;28;20631;-58
2023/06/12 07:02:16;;;;;;;5.40;4.88;;;;;;;24.09;39.51;100153.94;10267983;28;20297;-57
2023/06/12 07:07:18;;;;;;;5.57;4.35;;;;;;;24.14;39.53;100154.13;10295265;28;20045;-56
2023/06/12 07:12:20;;;;;;;6.90;5.35;;;;;;;24.32;39.45;100150.72;10289839;28;20129;-57
2023/06/12 07:17:21;;;;;;;4.80;4.32;;;;;;;24.46;39.74;100147.94;10284085;28;20055;-57
2023/06/12 07:22:23;;;;;;;4.63;4.20;;;;;;;24.67;39.11;100150.34;10291725;28;20054;-57
2023/06/12 07:27:26;;;;;;;6.10;4.32;;;;;;;24.77;38.88;100149.00;10291877;28;20248;-58
2023/06/12 07:32:28;;;;;;;15.00;6.93;;;;;;;24.86;39.03;100147.69;10285032;28;21094;-57
2023/06/12 07:37:35;;;;;;;5.55;4.97;;;;;;;24.93;38.65;100156.66;10277715;28;20085;-57
2023/06/12 07:42:37;;;;;;;5.53;4.45;;;;;;;24.97;38.62;100147.00;10300014;28;20504;-58
2023/06/12 07:47:39;;;;;;;4.97;4.47;;;;;;;25.19;38.67;100146.59;10274922;28;20163;-59
2023/06/12 07:52:40;;;;;;;4.78;4.38;;;;;;;25.35;37.97;100140.63;10280772;28;20101;-59
2023/06/12 07:57:42;;;;;;;6.85;4.72;;;;;;;25.50;38.05;100143.00;10300299;28;20056;-58
2023/06/12 08:02:44;;;;;;;5.15;4.28;;;;;;;25.53;38.80;100119.91;10282156;28;20054;-59
2023/06/12 08:07:46;;;;;;;4.80;4.40;;;;;;;25.74;38.45;100121.38;10295434;28;20192;-62
2023/06/12 08:12:48;;;;;;;4.57;3.90;;;;;;;25.91;38.56;100113.41;10281917;28;20696;-56
2023/06/12 08:17:51;;;;;;;5.15;4.65;;;;;;;26.15;37.93;100116.28;10293824;28;20050;-57
2023/06/12 08:22:56;;;;;;;5.88;4.47;;;;;;;26.28;37.74;100107.94;10281117;28;20053;-56
2023/06/12 08:28:00;;;;;;;5.53;4.80;;;;;;;26.37;37.76;100116.63;10289327;28;20084;-56
2023/06/12 08:33:03;;;;;;;4.97;4.47;;;;;;;26.55;37.35;100102.09;10285296;28;20046;-57
2023/06/12 08:38:04;;;;;;;5.05;4.65;;;;;;;26.69;37.13;100095.38;10304053;28;20042;-57
2023/06/12 08:43:06;;;;;;;5.47;5.07;;;;;;;26.95;35.98;100099.59;10288287;28;20058;-56
2023/06/12 08:48:09;;;;;;;6.72;4.70;;;;;;;26.96;36.04;100095.81;10299043;28;20850;-57
2023/06/12 08:53:11;;;;;;;8.38;5.03;;;;;;;27.07;36.20;100101.50;10306840;28;20060;-57
2023/06/12 08:58:13;;;;;;;9.93;5.45;;;;;;;27.10;36.50;100085.50;10297429;28;20054;-60
2023/06/12 09:03:15;;;;;;;5.53;4.83;;;;;;;27.17;35.39;100083.47;10268668;28;20116;-58
2023/06/12 09:08:16;;;;;;;4.72;4.40;;;;;;;27.15;35.37;100077.41;10290988;28;20946;-58
2023/06/12 09:13:18;;;;;;;7.73;5.47;;;;;;;27.22;35.84;100070.97;10288935;28;20054;-57
2023/06/12 09:18:21;;;;;;;5.82;5.05;;;;;;;27.54;35.56;100068.72;10301305;28;20073;-56
2023/06/12 09:23:23;;;;;;;4.93;3.97;;;;;;;27.74;34.89;100067.50;10298463;28;20124;-56
2023/06/12 09:28:25;;;;;;;5.38;4.88;;;;;;;27.82;32.67;100078.06;10271951;28;20089;-57
2023/06/12 09:33:27;;;;;;;7.43;5.10;;;;;;;27.85;33.23;100067.47;10301442;28;21211;-57
2023/06/12 09:38:30;;;;;;;5.07;4.63;;;;;;;27.58;32.60;100058.13;10287768;28;20974;-61
2023/06/12 09:43:33;;;;;;;5.45;4.35;;;;;;;27.78;33.71;100052.28;10286239;28;20065;-62
2023/06/12 09:48:36;;;;;;;;;;;;;;;28.15;30.37;100063.72;10299533;28;20137;-61
2023/06/12 09:53:39;;;;;;;5.47;4.70;;;;;;;28.61;28.68;100057.44;10288806;28;19926;-61
2023/06/12 09:58:47;;;;;;;5.72;4.30;;;;;;;28.75;29.29;100058.78;10310609;28;20765;-62
2023/06/12 10:03:52;;;;;;;6.18;4.15;;;;;;;28.89;28.67;100060.09;10305886;28;20167;-62
2023/06/12 10:08:55;;;;;;;5.60;4.85;;;;;;;28.83;28.53;100046.56;10273834;28;20050;-61
2023/06/12 10:13:58;;;;;;;5.30;4.47;;;;;;;28.83;27.99;100047.38;10294428;28;20057;-63
2023/06/12 10:19:01;;;;;;;5.45;4.35;;;;;;;28.71;29.12;100043.91;10264462;28;20137;-62
2023/06/12 10:24:03;;;;;;;4.75;4.03;;;;;;;28.67;28.18;100034.53;10286740;28;20046;-62
2023/06/12 10:29:24;;;;;;;7.15;4.82;;;;;;;29.02;26.83;100045.22;10295589;28;20126;-61
2023/06/12 10:34:27;;;;;;;4.90;4.50;;;;;;;29.22;26.13;100039.22;10302718;28;20528;-61
2023/06/12 10:39:30;;;;;;;5.38;4.47;;;;;;;29.44;27.14;100022.00;10276802;28;20065;-61
2023/06/12 10:44:37;;;;;;;5.10;4.70;;;;;;;29.55;26.11;100029.25;10271512;28;20057;-63
2023/06/12 10:50:01;;;;;;;5.53;5.03;;;;;;;29.61;25.72;100021.94;10275706;28;20054;-62
2023/06/12 10:55:13;;;;;;;4.93;4.22;;;;;;;29.62;26.38;100026.34;10292499;28;20132;-62
2023/06/12 11:00:19;;;;;;;5.30;4.80;;;;;;;29.88;25.82;100004.72;10288100;28;20670;-63
2023/06/12 11:05:21;;;;;;;5.72;4.22;;;;;;;30.15;26.52;100007.47;10302074;28;20384;-61
2023/06/12 11:10:24;;;;;;;;;;;;;;;30.47;25.38;100012.16;10272186;28;20107;-64
2023/06/12 11:15:26;;;;;;;6.07;3.85;;;;;;;30.32;25.64;100013.63;10294478;28;20228;-60
2023/06/12 11:20:29;;;;;;;4.88;4.47;;;;;;;30.33;25.91;100011.75;10299018;28;20058;-60
2023/06/12 11:25:45;;;;;;;5.55;4.18;;;;;;;30.03;25.76;100010.34;10294507;28;21365;-60
2023/06/12 11:30:56;;;;;;;7.72;5.28;;;;;;;29.47;25.52;100006.94;10282463;28;20050;-60
2023/06/12 11:36:11;;;;;;;6.15;4.03;;;;;;;29.27;25.78;100003.69;10298700;28;20107;-58
2023/06/12 11:41:12;;;;;;;8.70;5.50;;;;;;;29.54;26.23;100000.16;10270596;28;20868;-60
2023/06/12 11:46:15;;;;;;;5.10;4.60;;;;;;;29.73;24.13;99997.13;10264265;28;20053;-60
2023/06/12 11:51:17;;;;;;;9.68;4.90;;;;;;;29.80;26.21;99997.75;10300708;28;20100;-59
2023/06/12 11:56:20;;;;;;;4.60;4.20;;;;;;;30.03;25.18;99993.91;10298396;28;20481;-60
2023/06/12 12:01:25;;;;;;;5.60;4.13;;;;;;;30.19;25.24;99985.81;10297860;28;20197;-60
2023/06/12 12:06:29;;;;;;;4.95;4.50;;;;;;;30.29;24.42;99991.38;10279286;28;20088;-62
2023/06/12 12:11:30;;;;;;;5.28;4.47;;;;;;;29.93;24.49;99975.41;10305463;28;20061;-61
2023/06/12 12:16:42;;;;;;;5.75;4.38;;;;;;;30.07;25.23;99970.34;10304117;28;20054;-61
2023/06/12 12:21:46;;;;;;;6.75;5.18;;;;;;;30.21;23.43;99970.75;10301197;28;20423;-60
2023/06/12 12:26:52;;;;;;;5.05;3.78;;;;;;;30.29;24.34;99975.72;10288706;28;20072;-59
2023/06/12 12:31:54;;;;;;;4.63;3.80;;;;;;;30.35;23.84;99965.63;10298559;28;20049;-60
2023/06/12 12:36:57;;;;;;;4.78;4.30;;;;;;;30.15;22.54;99972.59;10307113;28;20673;-61
2023/06/12 12:41:58;;;;;;;4.53;3.85;;;;;;;30.14;23.15;99956.41;10304046;28;20124;-59
2023/06/12 12:47:00;;;;;;;4.57;3.90;;;;;;;30.27;22.63;99968.88;10286353;28;20049;-61
2023/06/12 12:52:02;;;;;;;5.38;4.00;;;;;;;30.25;21.83;99958.16;10297789;28;20119;-60
2023/06/12 12:57:05;;;;;;;3.65;3.35;;;;;;;30.25;22.93;99952.66;10304100;28;20065;-60
2023/06/12 13:02:06;;;;;;;5.10;3.70;;;;;;;30.30;23.26;99946.38;10307830;28;20259;-60
2023/06/12 13:07:08;;;;;;;;;;;;;;;30.36;22.71;99947.25;10298287;28;20498;-59
2023/06/12 13:12:10;;;;;;;7.07;4.05;;;;;;;30.26;22.77;99946.06;10294339;28;20024;-60
2023/06/12 13:17:12;;;;;;;;;;;;;;;30.25;22.69;99930.72;10301964;28;20536;-61
2023/06/12 13:22:14;;;;;;;4.40;3.60;;;;;;;30.27;23.61;99925.78;10293040;28;19929;-60
2023/06/12 13:27:15;;;;;;;4.18;3.80;;;;;;;30.25;22.74;99938.94;10283456;28;20252;-60
2023/06/12 13:32:17;;;;;;;4.93;3.80;;;;;;;30.05;23.04;99917.63;10305650;28;20061;-60
2023/06/12 13:37:19;;;;;;;;;;;;;;;30.03;23.36;99906.09;10284577;28;20749;-60
2023/06/12 13:42:24;;;;;;;3.17;2.88;;;;;;;29.95;23.35;99918.38;10301400;28;20176;-62
2023/06/12 13:47:25;;;;;;;3.92;3.60;;;;;;;29.88;23.59;99909.53;10301037;28;20341;-61
2023/06/12 13:52:29;;;;;;;3.55;3.25;;;;;;;29.86;23.18;99905.38;10278155;28;20053;-60
2023/06/12 13:57:37;;;;;;;5.75;2.92;;;;;;;29.79;23.08;99905.56;10284251;28;20058;-60
2023/06/12 14:02:39;;;;;;;3.80;3.28;;;;;;;29.78;23.13;99906.66;10299934;28;20147;-61
2023/06/12 14:07:41;;;;;;;;;;;;;;;29.81;22.97;99911.63;10280914;28;20128;-60
2023/06/12 14:12:42;;;;;;;4.50;3.63;;;;;;;29.75;23.59;99898.94;10303202;28;19926;-59
2023/06/12 14:17:44;;;;;;;;;;;;;;;29.71;23.21;99900.53;10294722;28;20049;-59
2023/06/12 14:22:46;;;;;;;3.45;3.15;;;;;;;29.52;24.23;99894.59;10275808;28;21039;-60
2023/06/12 14:27:47;;;;;;;4.03;3.47;;;;;;;29.46;23.27;99885.50;10293853;28;20164;-59
2023/06/12 14:32:49;;;;;;;4.87;3.23;;;;;;;29.41;23.67;99885.41;10278478;28;20315;-59
2023/06/12 14:37:51;;;;;;;;;;;;;;;29.33;23.47;99874.94;10280025;28;20045;-60
2023/06/12 14:42:53;;;;;;;5.65;3.15;;;;;;;29.36;23.62;99880.72;10294625;28;19961;-61
2023/06/12 14:47:56;;;;;;;6.50;4.13;;;;;;;29.30;22.47;99878.19;10276364;28;20145;-60
2023/06/12 14:52:57;;;;;;;3.92;3.63;;;;;;;29.18;22.19;99879.09;10275480;28;20050;-61
2023/06/12 14:57:59;;;;;;;5.00;4.13;;;;;;;29.13;22.53;99875.50;10298995;28;20064;-61
2023/06/12 15:03:01;;;;;;;4.33;3.77;;;;;;;29.07;23.40;99869.13;10299050;28;20050;-61
2023/06/12 15:08:04;;;;;;;3.78;3.47;;;;;;;29.01;23.52;99864.66;10301115;28;20493;-61
2023/06/12 15:13:07;;;;;;;4.40;4.00;;;;;;;28.88;23.78;99872.16;10278574;28;20057;-61
2023/06/12 15:18:11;;;;;;;4.30;3.83;;;;;;;28.92;24.05;99859.63;10294642;28;20057;-61
2023/06/12 15:23:12;;;;;;;4.47;3.63;;;;;;;28.97;24.41;99856.13;10280124;28;20195;-61
2023/06/12 15:28:14;;;;;;;4.87;3.70;;;;;;;29.04;24.65;99864.16;10282686;28;20045;-61
2023/06/12 15:33:17;;;;;;;3.50;3.17;;;;;;;29.08;25.13;99859.84;10287757;28;20058;-61
2023/06/12 15:38:33;;;;;;;3.97;3.67;;;;;;;29.03;24.15;99865.22;10254920;28;20061;-61
2023/06/12 15:43:35;;;;;;;4.78;3.30;;;;;;;28.82;24.26;99845.78;10269004;28;20089;-62
2023/06/12 15:48:40;;;;;;;4.20;3.40;;;;;;;28.75;24.55;99856.13;10282751;28;20151;-60
2023/06/12 15:53:42;;;;;;;4.00;3.60;;;;;;;28.71;24.42;99841.28;10285309;28;20065;-64
2023/06/12 15:58:44;;;;;;;5.97;4.18;;;;;;;28.71;24.34;99838.53;10288049;28;20053;-62
2023/06/12 16:03:47;;;;;;;4.68;3.30;;;;;;;28.70;24.27;99834.13;10279213;28;20049;-61
2023/06/12 16:08:49;;;;;;;3.72;3.40;;;;;;;28.72;23.81;99832.00;10290344;28;20927;-61
2023/06/12 16:13:50;;;;;;;5.23;3.13;;;;;;;28.72;24.33;99824.59;10297938;28;21403;-61
2023/06/12 16:18:52;;;;;;;3.93;3.30;;;;;;;28.76;24.59;99821.34;10298275;28;20812;-62
2023/06/12 16:23:54;;;;;;;4.80;3.55;;;;;;;28.74;24.79;99821.59;10303193;28;20468;-61
2023/06/12 16:28:56;;;;;;;;;;;;;;;28.73;24.06;99822.69;10297468;28;20057;-61
2023/06/12 16:33:58;;;;;;;3.92;3.50;;;;;;;28.66;23.67;99817.41;10308072;28;19937;-61
2023/06/12 16:38:59;;;;;;;4.13;3.75;;;;;;;28.59;24.55;99810.44;10276742;28;20066;-61
2023/06/12 16:44:01;;;;;;;6.47;3.37;;;;;;;28.57;24.98;99807.94;10289274;28;20058;-61
2023/06/12 16:49:02;;;;;;;4.33;3.90;;;;;;;28.52;24.92;99803.19;10288226;28;22135;-61
2023/06/12 16:54:06;;;;;;;3.65;3.35;;;;;;;28.49;25.20;99800.16;10287682;28;20053;-62
2023/06/12 16:59:07;;;;;;;4.03;3.63;;;;;;;28.50;25.11;99802.63;10274105;28;20142;-61
2023/06/12 17:04:09;;;;;;;9.27;3.72;;;;;;;28.47;25.04;99808.63;10291895;28;20053;-61
2023/06/12 17:09:13;;;;;;;3.67;3.37;;;;;;;28.41;25.31;99801.44;10285533;28;20144;-61
2023/06/12 17:14:14;;;;;;;3.33;3.03;;;;;;;28.35;25.41;99803.25;10300910;28;20286;-61
2023/06/12 17:19:17;;;;;;;3.67;3.38;;;;;;;28.30;25.03;99813.28;10285231;28;21483;-61
2023/06/12 17:24:19;;;;;;;;;;;;;;;28.24;24.83;99806.09;10304588;28;20802;-61
2023/06/12 17:29:21;;;;;;;5.22;3.20;;;;;;;28.21;25.03;99799.25;10270472;28;21373;-60
2023/06/12 17:34:23;;;;;;;4.95;3.55;;;;;;;28.18;25.21;99800.56;10300983;28;20060;-61
2023/06/12 17:39:26;;;;;;;;;;;;;;;28.10;25.21;99798.22;10293889;28;20080;-63
2023/06/12 17:44:27;;;;;;;3.10;2.80;;;;;;;28.06;25.23;99793.53;10299180;28;20845;-62
2023/06/12 17:49:28;;;;;;;4.88;3.95;;;;;;;28.01;25.17;99797.00;10300476;28;20058;-61
2023/06/12 17:54:30;;;;;;;4.07;3.60;;;;;;;27.92;25.33;99787.53;10275728;28;20159;-60
2023/06/12 17:59:32;;;;;;;4.67;3.40;;;;;;;27.85;25.50;99785.81;10289991;28;20176;-60
2023/06/12 18:04:34;;;;;;;3.50;2.80;;;;;;;27.80;25.07;99783.00;10303615;28;20337;-60
2023/06/12 18:09:35;;;;;;;3.60;3.17;;;;;;;27.74;24.79;99794.91;10301807;28;20057;-62
2023/06/12 18:14:37;;;;;;;4.13;3.75;;;;;;;27.66;24.88;99787.13;10300403;28;20112;-61
2023/06/12 18:19:38;;;;;;;4.07;3.67;;;;;;;27.64;25.15;99800.22;10279255;28;20061;-61
2023/06/12 18:24:40;;;;;;;3.97;3.37;;;;;;;27.54;25.40;99780.91;10289532;28;20135;-60
2023/06/12 18:29:42;;;;;;;3.63;3.33;;;;;;;27.50;25.83;99783.31;10291645;28;21813;-61
2023/06/12 18:34:46;;;;;;;6.23;3.10;;;;;;;27.46;25.94;99799.38;10284827;28;20147;-61
2023/06/12 18:39:47;;;;;;;4.10;2.85;;;;;;;27.38;26.19;99791.56;10282131;28;20746;-60
2023/06/12 18:44:49;;;;;;;3.42;3.13;;;;;;;27.30;25.97;99787.28;10272851;28;20167;-61
2023/06/12 18:49:50;;;;;;;3.33;3.03;;;;;;;27.24;26.29;99782.00;10286469;28;20065;-61
2023/06/12 18:54:52;;;;;;;3.70;3.40;;;;;;;27.21;26.05;99788.78;10261645;28;20434;-61
2023/06/12 18:59:54;;;;;;;4.80;3.63;;;;;;;27.14;27.03;99791.66;10293370;28;20724;-61
2023/06/12 19:04:55;;;;;;;3.97;3.10;;;;;;;27.05;27.01;99795.84;10283672;28;20059;-60
2023/06/12 19:09:57;;;;;;;3.60;3.30;;;;;;;26.97;27.21;99796.25;10280188;28;20399;-60
2023/06/12 19:14:59;;;;;;;6.80;3.45;;;;;;;26.91;27.47;99797.22;10282810;28;20066;-61
2023/06/12 19:20:02;;;;;;;4.65;3.53;;;;;;;26.76;27.75;99798.56;10283010;28;20065;-61
2023/06/12 19:25:05;;;;;;;4.22;3.22;;;;;;;26.64;28.86;99811.38;10297225;28;20046;-59
2023/06/12 19:30:07;;;;;;;4.63;3.53;;;;;;;26.44;29.73;99807.13;10263990;28;21543;-60
2023/06/12 19:35:10;;;;;;;4.40;3.75;;;;;;;26.40;30.02;99813.31;10298798;28;20099;-61
2023/06/12 19:40:12;;;;;;;4.63;3.42;;;;;;;26.30;30.31;99824.81;10296795;28;20167;-68
2023/06/12 19:45:15;;;;;;;4.20;3.28;;;;;;;26.19;30.93;99828.38;10283092;28;20058;-61
2023/06/12 19:50:20;;;;;;;3.65;3.25;;;;;;;26.13;30.44;99827.41;10294046;28;20053;-60
2023/06/12 19:55:22;;;;;;;3.65;2.78;;;;;;;26.03;30.96;99836.22;10299576;28;20189;-60
2023/06/12 20:00:24;;;;;;;5.57;3.88;;;;;;;25.75;31.21;99845.00;10282092;28;20100;-61
2023/06/12 20:05:25;;;;;;;4.70;3.90;;;;;;;25.72;31.15;99834.59;10293130;28;20724;-61
2023/06/12 20:10:27;;;;;;;5.03;3.60;;;;;;;25.62;31.21;99826.97;10299535;28;20533;-52
2023/06/12 20:15:28;;;;;;;3.70;3.40;;;;;;;25.68;31.29;99845.09;10294748;28;20070;-52
2023/06/12 20:20:34;;;;;;;4.25;3.20;;;;;;;25.58;31.36;99851.13;10280027;28;20724;-51
2023/06/12 20:25:36;;;;;;;6.18;3.50;;;;;;;25.56;30.99;99852.41;10279538;28;21160;-52
2023/06/12 20:30:38;;;;;;;5.75;3.17;;;;;;;25.47;31.11;99848.38;10289987;28;20056;-51
2023/06/12 20:35:39;;;;;;;7.35;3.00;;;;;;;25.31;31.00;99856.13;10283832;28;20245;-52
2023/06/12 20:40:41;;;;;;;7.78;3.45;;;;;;;25.21;31.17;99847.66;10300962;28;20080;-52
2023/06/12 20:45:42;;;;;;;4.60;3.33;;;;;;;25.18;31.01;99850.81;10309756;28;20509;-51
2023/06/12 20:50:43;;;;;;;5.22;3.28;;;;;;;25.06;31.07;99856.22;10299640;28;20054;-51
2023/06/12 20:55:45;;;;;;;3.53;3.10;;;;;;;25.03;31.20;99857.50;10287606;28;20518;-52
2023/06/12 21:00:46;;;;;;;3.47;2.90;;;;;;;24.97;31.34;99863.03;10301788;28;20107;-55
2023/06/12 21:05:50;;;;;;;4.15;3.22;;;;;;;24.85;31.27;99858.34;10299070;28;20079;-52
2023/06/12 21:10:52;;;;;;;4.82;3.20;;;;;;;24.79;31.55;99858.41;10305264;28;20054;-52
2023/06/12 21:15:54;;;;;;;4.65;3.58;;;;;;;24.68;32.21;99858.13;10310123;28;20073;-51
2023/06/12 21:20:56;;;;;;;6.20;3.72;;;;;;;24.68;32.04;99859.97;10308127;28;20229;-51
2023/06/12 21:26:00;;;;;;;4.60;3.28;;;;;;;24.55;31.50;99860.94;10294488;28;20727;-51
2023/06/12 21:31:02;;;;;;;5.68;3.40;;;;;;;24.50;32.26;99861.63;10307348;28;20050;-52
2023/06/12 21:36:04;;;;;;;5.03;3.10;;;;;;;24.52;32.04;99866.84;10305571;28;20556;-52
2023/06/12 21:41:06;;;;;;;3.67;3.38;;;;;;;24.49;32.04;99878.16;10308878;28;20557;-52
2023/06/12 21:46:07;;;;;;;3.30;3.00;;;;;;;24.39;31.97;99870.50;10293985;28;20271;-52
2023/06/12 21:51:09;;;;;;;3.70;3.10;;;;;;;24.34;32.25;99863.03;10308222;28;20133;-52
2023/06/12 21:56:10;;;;;;;4.68;3.35;;;;;;;24.32;32.12;99876.03;10306211;28;20054;-52
2023/06/12 22:01:12;;;;;;;4.57;3.53;;;;;;;24.26;32.46;99871.47;10287845;28;20060;-51
2023/06/12 22:06:13;;;;;;;3.72;3.33;;;;;;;24.24;32.59;99865.41;10306295;28;20064;-52
2023/06/12 22:11:15;;;;;;;4.57;3.75;;;;;;;24.20;32.55;99866.06;10304205;28;20827;-52
2023/06/12 22:16:16;;;;;;;3.78;3.40;;;;;;;24.15;32.21;99864.03;10297409;28;20058;-52
2023/06/12 22:21:17;;;;;;;3.92;3.35;;;;;;;24.07;32.65;99864.31;10303701;28;20046;-51
2023/06/12 22:26:19;;;;;;;5.13;3.22;;;;;;;24.03;32.75;99871.25;10306157;28;20089;-51
2023/06/12 22:31:21;;;;;;;3.97;3.58;;;;;;;23.98;32.71;99875.44;10305552;28;20073;-52
2023/06/12 22:36:23;;;;;;;4.15;3.67;;;;;;;23.93;33.03;99871.72;10302473;28;20057;-51
2023/06/12 22:41:25;;;;;;;4.85;3.22;;;;;;;23.82;32.93;99870.53;10306245;28;20057;-52
2023/06/12 22:46:26;;;;;;;5.57;3.72;;;;;;;23.71;33.23;99880.22;10305452;28;20061;-51
2023/06/12 22:51:28;;;;;;;3.33;3.00;;;;;;;23.47;33.43;99876.41;10303369;28;20125;-51
2023/06/12 22:56:33;;;;;;;4.03;3.63;;;;;;;23.39;33.32;99876.63;10303996;28;20050;-50
2023/06/12 23:01:34;;;;;;;3.63;3.33;;;;;;;23.30;33.54;99885.03;10303936;28;20061;-51
2023/06/12 23:06:37;;;;;;;4.10;3.78;;;;;;;23.20;33.64;99887.38;10300210;28;20494;-51
2023/06/12 23:11:38;;;;;;;3.90;3.60;;;;;;;23.07;34.15;99892.84;10285897;28;20058;-51
2023/06/12 23:16:40;;;;;;;4.88;3.85;;;;;;;23.08;33.80;99889.91;10300001;28;20566;-53
2023/06/12 23:21:42;;;;;;;4.15;3.75;;;;;;;23.03;34.35;99888.88;10308866;28;20578;-51
2023/06/12 23:26:45;;;;;;;4.25;3.85;;;;;;;23.01;34.59;99888.25;10296814;28;20319;-51